sensor_id;sensor_type;location;lat;lon;timestamp;P1;durP1;ratioP1;P2;durP2;ratioP2
10851;SDS011;5479;52.046;6.314;2024-03-08T00:00:27;22.20;;;15.43;;
10851;SDS011;5479;52.046;6.314;2024-03-08T00:02:55;20.10;;;14.50;;
10851;SDS011;5479;52.046;6.314;2024-03-08T00:05:23;23.07;;;15.07;;
10851;SDS011;5479;52.046;6.314;2024-03-08T00:07:52;22.23;;;14.77;;
10851;SDS011;5479;52.046;6.314;2024-03-08T00:10:20;20.20;;;14.67;;
10851;SDS011;5479;52.046;6.314;2024-03-08T00:12:49;23.50;;;15.13;;
10851;SDS011;5479;52.046;6.314;2024-03-08T00:15:18;21.87;;;14.83;;
10851;SDS011;5479;52.046;6.314;2024-03-08T00:17:46;22.37;;;15.43;;
10851;SDS011;5479;52.046;6.314;2024-03-08T00:20:13;20.90;;;13.80;;
10851;SDS011;5479;52.046;6.314;2024-03-08T00:22:41;19.90;;;14.33;;
10851;SDS011;5479;52.046;6.314;2024-03-08T00:25:09;21.73;;;14.47;;
10851;SDS011;5479;52.046;6.314;2024-03-08T00:27:38;20.07;;;14.17;;
10851;SDS011;5479;52.046;6.314;2024-03-08T00:30:07;22.00;;;15.37;;
10851;SDS011;5479;52.046;6.314;2024-03-08T00:32:35;20.53;;;14.10;;
10851;SDS011;5479;52.046;6.314;2024-03-08T00:35:04;20.03;;;14.47;;
10851;SDS011;5479;52.046;6.314;2024-03-08T00:37:33;20.33;;;14.23;;
10851;SDS011;5479;52.046;6.314;2024-03-08T00:40:01;19.50;;;14.77;;
10851;SDS011;5479;52.046;6.314;2024-03-08T00:42:29;20.57;;;14.77;;
10851;SDS011;5479;52.046;6.314;2024-03-08T00:44:57;18.77;;;13.97;;
10851;SDS011;5479;52.046;6.314;2024-03-08T00:47:26;19.60;;;13.87;;
10851;SDS011;5479;52.046;6.314;2024-03-08T00:49:54;19.50;;;14.37;;
10851;SDS011;5479;52.046;6.314;2024-03-08T00:52:22;18.53;;;14.07;;
10851;SDS011;5479;52.046;6.314;2024-03-08T00:54:51;19.60;;;13.80;;
10851;SDS011;5479;52.046;6.314;2024-03-08T00:57:19;19.90;;;14.17;;
10851;SDS011;5479;52.046;6.314;2024-03-08T00:59:47;19.87;;;13.63;;
10851;SDS011;5479;52.046;6.314;2024-03-08T01:02:15;17.40;;;13.73;;
10851;SDS011;5479;52.046;6.314;2024-03-08T01:04:46;17.67;;;13.47;;
10851;SDS011;5479;52.046;6.314;2024-03-08T01:07:14;19.20;;;13.97;;
10851;SDS011;5479;52.046;6.314;2024-03-08T01:09:42;17.27;;;13.27;;
10851;SDS011;5479;52.046;6.314;2024-03-08T01:12:10;18.47;;;14.83;;
10851;SDS011;5479;52.046;6.314;2024-03-08T01:14:37;18.60;;;14.00;;
10851;SDS011;5479;52.046;6.314;2024-03-08T01:17:05;18.67;;;13.07;;
10851;SDS011;5479;52.046;6.314;2024-03-08T01:19:33;18.17;;;13.60;;
10851;SDS011;5479;52.046;6.314;2024-03-08T01:22:02;18.30;;;14.03;;
10851;SDS011;5479;52.046;6.314;2024-03-08T01:24:30;19.77;;;13.67;;
10851;SDS011;5479;52.046;6.314;2024-03-08T01:26:57;18.67;;;13.23;;
10851;SDS011;5479;52.046;6.314;2024-03-08T01:29:26;19.43;;;14.07;;
10851;SDS011;5479;52.046;6.314;2024-03-08T01:31:54;18.27;;;13.50;;
10851;SDS011;5479;52.046;6.314;2024-03-08T01:34:22;19.60;;;14.37;;
10851;SDS011;5479;52.046;6.314;2024-03-08T01:36:50;17.90;;;13.63;;
10851;SDS011;5479;52.046;6.314;2024-03-08T01:39:19;21.60;;;13.87;;
10851;SDS011;5479;52.046;6.314;2024-03-08T01:41:48;17.80;;;14.23;;
10851;SDS011;5479;52.046;6.314;2024-03-08T01:44:16;19.60;;;14.47;;
10851;SDS011;5479;52.046;6.314;2024-03-08T01:46:44;16.83;;;13.23;;
10851;SDS011;5479;52.046;6.314;2024-03-08T01:49:11;16.50;;;12.97;;
10851;SDS011;5479;52.046;6.314;2024-03-08T01:51:40;17.30;;;13.17;;
10851;SDS011;5479;52.046;6.314;2024-03-08T01:54:08;17.37;;;13.63;;
10851;SDS011;5479;52.046;6.314;2024-03-08T01:56:38;18.47;;;13.97;;
10851;SDS011;5479;52.046;6.314;2024-03-08T01:59:06;18.47;;;13.60;;
10851;SDS011;5479;52.046;6.314;2024-03-08T02:01:35;18.40;;;13.67;;
10851;SDS011;5479;52.046;6.314;2024-03-08T02:04:02;16.87;;;13.17;;
10851;SDS011;5479;52.046;6.314;2024-03-08T02:06:32;16.93;;;13.70;;
10851;SDS011;5479;52.046;6.314;2024-03-08T02:09:00;17.97;;;13.90;;
10851;SDS011;5479;52.046;6.314;2024-03-08T02:11:32;16.67;;;13.33;;
10851;SDS011;5479;52.046;6.314;2024-03-08T02:14:01;18.20;;;13.53;;
10851;SDS011;5479;52.046;6.314;2024-03-08T02:16:28;21.90;;;14.37;;
10851;SDS011;5479;52.046;6.314;2024-03-08T02:18:56;18.17;;;14.60;;
10851;SDS011;5479;52.046;6.314;2024-03-08T02:21:25;18.73;;;13.60;;
10851;SDS011;5479;52.046;6.314;2024-03-08T02:23:53;18.80;;;14.00;;
10851;SDS011;5479;52.046;6.314;2024-03-08T02:26:21;19.90;;;14.43;;
10851;SDS011;5479;52.046;6.314;2024-03-08T02:28:49;19.60;;;13.93;;
10851;SDS011;5479;52.046;6.314;2024-03-08T02:31:16;18.00;;;13.83;;
10851;SDS011;5479;52.046;6.314;2024-03-08T02:33:45;18.80;;;14.10;;
10851;SDS011;5479;52.046;6.314;2024-03-08T02:36:14;18.67;;;14.67;;
10851;SDS011;5479;52.046;6.314;2024-03-08T02:38:43;19.90;;;14.53;;
10851;SDS011;5479;52.046;6.314;2024-03-08T02:41:11;17.10;;;13.40;;
10851;SDS011;5479;52.046;6.314;2024-03-08T02:43:39;16.63;;;13.13;;
10851;SDS011;5479;52.046;6.314;2024-03-08T02:46:06;21.27;;;14.13;;
10851;SDS011;5479;52.046;6.314;2024-03-08T02:48:34;20.00;;;14.47;;
10851;SDS011;5479;52.046;6.314;2024-03-08T02:51:02;17.37;;;13.97;;
10851;SDS011;5479;52.046;6.314;2024-03-08T02:53:29;17.57;;;14.00;;
10851;SDS011;5479;52.046;6.314;2024-03-08T02:55:59;17.53;;;13.67;;
10851;SDS011;5479;52.046;6.314;2024-03-08T02:58:26;18.40;;;14.30;;
10851;SDS011;5479;52.046;6.314;2024-03-08T03:00:54;18.87;;;14.10;;
10851;SDS011;5479;52.046;6.314;2024-03-08T03:03:23;17.57;;;14.20;;
10851;SDS011;5479;52.046;6.314;2024-03-08T03:05:51;19.47;;;14.27;;
10851;SDS011;5479;52.046;6.314;2024-03-08T03:08:21;17.87;;;13.43;;
10851;SDS011;5479;52.046;6.314;2024-03-08T03:10:50;17.40;;;13.97;;
10851;SDS011;5479;52.046;6.314;2024-03-08T03:13:19;20.30;;;14.70;;
10851;SDS011;5479;52.046;6.314;2024-03-08T03:15:46;18.07;;;14.07;;
10851;SDS011;5479;52.046;6.314;2024-03-08T03:18:14;20.53;;;15.03;;
10851;SDS011;5479;52.046;6.314;2024-03-08T03:20:42;19.70;;;13.87;;
10851;SDS011;5479;52.046;6.314;2024-03-08T03:23:10;17.40;;;14.20;;
10851;SDS011;5479;52.046;6.314;2024-03-08T03:25:40;19.60;;;14.27;;
10851;SDS011;5479;52.046;6.314;2024-03-08T03:28:08;17.37;;;13.83;;
10851;SDS011;5479;52.046;6.314;2024-03-08T03:30:38;20.10;;;14.57;;
10851;SDS011;5479;52.046;6.314;2024-03-08T03:33:06;18.73;;;14.20;;
10851;SDS011;5479;52.046;6.314;2024-03-08T03:35:33;17.70;;;14.10;;
10851;SDS011;5479;52.046;6.314;2024-03-08T03:38:02;20.23;;;14.63;;
10851;SDS011;5479;52.046;6.314;2024-03-08T03:40:33;20.07;;;14.60;;
10851;SDS011;5479;52.046;6.314;2024-03-08T03:43:01;18.77;;;14.47;;
10851;SDS011;5479;52.046;6.314;2024-03-08T03:45:29;17.90;;;13.80;;
10851;SDS011;5479;52.046;6.314;2024-03-08T03:48:01;18.57;;;14.43;;
10851;SDS011;5479;52.046;6.314;2024-03-08T03:50:29;20.43;;;14.67;;
10851;SDS011;5479;52.046;6.314;2024-03-08T03:52:56;18.10;;;14.30;;
10851;SDS011;5479;52.046;6.314;2024-03-08T03:55:24;20.07;;;14.57;;
10851;SDS011;5479;52.046;6.314;2024-03-08T03:57:52;20.33;;;14.87;;
10851;SDS011;5479;52.046;6.314;2024-03-08T04:00:19;21.30;;;15.23;;
10851;SDS011;5479;52.046;6.314;2024-03-08T04:02:47;19.57;;;14.90;;
10851;SDS011;5479;52.046;6.314;2024-03-08T04:05:16;20.20;;;15.23;;
10851;SDS011;5479;52.046;6.314;2024-03-08T04:07:44;19.20;;;14.40;;
10851;SDS011;5479;52.046;6.314;2024-03-08T04:10:11;18.87;;;14.17;;
10851;SDS011;5479;52.046;6.314;2024-03-08T04:12:39;19.13;;;15.23;;
10851;SDS011;5479;52.046;6.314;2024-03-08T04:15:07;20.20;;;15.33;;
10851;SDS011;5479;52.046;6.314;2024-03-08T04:17:37;19.97;;;14.93;;
10851;SDS011;5479;52.046;6.314;2024-03-08T04:20:05;20.17;;;15.10;;
10851;SDS011;5479;52.046;6.314;2024-03-08T04:22:37;19.40;;;14.50;;
10851;SDS011;5479;52.046;6.314;2024-03-08T04:25:05;18.80;;;14.47;;
10851;SDS011;5479;52.046;6.314;2024-03-08T04:27:33;19.10;;;14.50;;
10851;SDS011;5479;52.046;6.314;2024-03-08T04:30:01;21.23;;;15.17;;
10851;SDS011;5479;52.046;6.314;2024-03-08T04:32:29;20.60;;;14.67;;
10851;SDS011;5479;52.046;6.314;2024-03-08T04:34:58;19.77;;;14.93;;
10851;SDS011;5479;52.046;6.314;2024-03-08T04:37:27;18.50;;;13.80;;
10851;SDS011;5479;52.046;6.314;2024-03-08T04:39:57;20.23;;;14.43;;
10851;SDS011;5479;52.046;6.314;2024-03-08T04:42:25;21.40;;;15.87;;
10851;SDS011;5479;52.046;6.314;2024-03-08T04:44:52;20.53;;;15.13;;
10851;SDS011;5479;52.046;6.314;2024-03-08T04:47:20;20.43;;;15.03;;
10851;SDS011;5479;52.046;6.314;2024-03-08T04:49:48;20.13;;;15.33;;
10851;SDS011;5479;52.046;6.314;2024-03-08T04:52:16;20.40;;;15.27;;
10851;SDS011;5479;52.046;6.314;2024-03-08T04:54:44;20.03;;;15.53;;
10851;SDS011;5479;52.046;6.314;2024-03-08T04:57:13;20.43;;;15.93;;
10851;SDS011;5479;52.046;6.314;2024-03-08T04:59:41;18.73;;;15.40;;
10851;SDS011;5479;52.046;6.314;2024-03-08T05:02:08;20.67;;;15.83;;
10851;SDS011;5479;52.046;6.314;2024-03-08T05:04:37;19.70;;;14.90;;
10851;SDS011;5479;52.046;6.314;2024-03-08T05:07:05;18.57;;;14.83;;
10851;SDS011;5479;52.046;6.314;2024-03-08T05:09:34;21.27;;;15.30;;
10851;SDS011;5479;52.046;6.314;2024-03-08T05:12:02;22.13;;;15.23;;
10851;SDS011;5479;52.046;6.314;2024-03-08T05:14:31;19.70;;;15.33;;
10851;SDS011;5479;52.046;6.314;2024-03-08T05:16:59;21.30;;;15.60;;
10851;SDS011;5479;52.046;6.314;2024-03-08T05:19:27;19.50;;;14.73;;
10851;SDS011;5479;52.046;6.314;2024-03-08T05:21:56;20.93;;;14.87;;
10851;SDS011;5479;52.046;6.314;2024-03-08T05:24:24;20.50;;;14.97;;
10851;SDS011;5479;52.046;6.314;2024-03-08T05:26:52;20.07;;;15.70;;
10851;SDS011;5479;52.046;6.314;2024-03-08T05:29:19;20.93;;;15.40;;
10851;SDS011;5479;52.046;6.314;2024-03-08T05:31:49;20.40;;;14.93;;
10851;SDS011;5479;52.046;6.314;2024-03-08T05:34:18;19.83;;;15.30;;
10851;SDS011;5479;52.046;6.314;2024-03-08T05:36:47;20.20;;;15.20;;
10851;SDS011;5479;52.046;6.314;2024-03-08T05:39:16;20.27;;;15.87;;
10851;SDS011;5479;52.046;6.314;2024-03-08T05:41:44;20.23;;;15.67;;
10851;SDS011;5479;52.046;6.314;2024-03-08T05:44:12;20.53;;;15.00;;
10851;SDS011;5479;52.046;6.314;2024-03-08T05:46:40;20.80;;;16.17;;
10851;SDS011;5479;52.046;6.314;2024-03-08T05:49:09;20.83;;;15.23;;
10851;SDS011;5479;52.046;6.314;2024-03-08T05:51:38;19.50;;;15.10;;
10851;SDS011;5479;52.046;6.314;2024-03-08T05:54:06;20.50;;;15.93;;
10851;SDS011;5479;52.046;6.314;2024-03-08T05:56:36;21.33;;;15.63;;
10851;SDS011;5479;52.046;6.314;2024-03-08T05:59:04;20.03;;;15.50;;
10851;SDS011;5479;52.046;6.314;2024-03-08T06:01:32;19.47;;;14.90;;
10851;SDS011;5479;52.046;6.314;2024-03-08T06:04:02;20.00;;;15.50;;
10851;SDS011;5479;52.046;6.314;2024-03-08T06:06:31;18.87;;;15.23;;
10851;SDS011;5479;52.046;6.314;2024-03-08T06:08:59;23.33;;;16.43;;
10851;SDS011;5479;52.046;6.314;2024-03-08T06:11:27;20.13;;;15.97;;
10851;SDS011;5479;52.046;6.314;2024-03-08T06:13:56;22.80;;;16.03;;
10851;SDS011;5479;52.046;6.314;2024-03-08T06:16:26;21.57;;;16.60;;
10851;SDS011;5479;52.046;6.314;2024-03-08T06:18:55;22.97;;;15.77;;
10851;SDS011;5479;52.046;6.314;2024-03-08T06:21:23;21.07;;;16.03;;
10851;SDS011;5479;52.046;6.314;2024-03-08T06:23:54;20.63;;;15.70;;
10851;SDS011;5479;52.046;6.314;2024-03-08T06:26:23;23.33;;;17.00;;
10851;SDS011;5479;52.046;6.314;2024-03-08T06:28:54;22.17;;;16.93;;
10851;SDS011;5479;52.046;6.314;2024-03-08T06:31:22;22.93;;;17.07;;
10851;SDS011;5479;52.046;6.314;2024-03-08T06:33:50;21.10;;;16.57;;
10851;SDS011;5479;52.046;6.314;2024-03-08T06:36:17;22.00;;;16.67;;
10851;SDS011;5479;52.046;6.314;2024-03-08T06:38:47;22.53;;;16.83;;
10851;SDS011;5479;52.046;6.314;2024-03-08T06:41:17;22.40;;;15.87;;
10851;SDS011;5479;52.046;6.314;2024-03-08T06:43:45;23.53;;;16.20;;
10851;SDS011;5479;52.046;6.314;2024-03-08T06:46:14;21.60;;;16.67;;
10851;SDS011;5479;52.046;6.314;2024-03-08T06:48:42;22.17;;;16.97;;
10851;SDS011;5479;52.046;6.314;2024-03-08T06:51:09;22.93;;;16.87;;
10851;SDS011;5479;52.046;6.314;2024-03-08T06:53:38;21.13;;;15.93;;
10851;SDS011;5479;52.046;6.314;2024-03-08T06:56:05;19.87;;;16.07;;
10851;SDS011;5479;52.046;6.314;2024-03-08T06:58:35;22.03;;;16.27;;
10851;SDS011;5479;52.046;6.314;2024-03-08T07:01:03;21.73;;;16.17;;
10851;SDS011;5479;52.046;6.314;2024-03-08T07:03:33;24.17;;;16.77;;
10851;SDS011;5479;52.046;6.314;2024-03-08T07:06:01;21.23;;;17.27;;
10851;SDS011;5479;52.046;6.314;2024-03-08T07:08:29;20.57;;;16.03;;
10851;SDS011;5479;52.046;6.314;2024-03-08T07:10:56;20.70;;;15.77;;
10851;SDS011;5479;52.046;6.314;2024-03-08T07:13:24;19.97;;;15.57;;
10851;SDS011;5479;52.046;6.314;2024-03-08T07:15:57;22.17;;;16.73;;
10851;SDS011;5479;52.046;6.314;2024-03-08T07:18:27;19.03;;;15.87;;
10851;SDS011;5479;52.046;6.314;2024-03-08T07:20:55;22.13;;;16.57;;
10851;SDS011;5479;52.046;6.314;2024-03-08T07:23:22;19.63;;;15.90;;
10851;SDS011;5479;52.046;6.314;2024-03-08T07:26:04;20.73;;;15.13;;
10851;SDS011;5479;52.046;6.314;2024-03-08T07:28:32;20.93;;;16.07;;
10851;SDS011;5479;52.046;6.314;2024-03-08T07:31:01;20.03;;;16.10;;
10851;SDS011;5479;52.046;6.314;2024-03-08T07:33:43;19.50;;;16.07;;
10851;SDS011;5479;52.046;6.314;2024-03-08T07:36:11;18.80;;;15.67;;
10851;SDS011;5479;52.046;6.314;2024-03-08T07:38:40;21.13;;;16.10;;
10851;SDS011;5479;52.046;6.314;2024-03-08T07:41:08;20.50;;;16.87;;
10851;SDS011;5479;52.046;6.314;2024-03-08T07:43:36;20.60;;;16.60;;
10851;SDS011;5479;52.046;6.314;2024-03-08T07:46:05;20.27;;;16.73;;
10851;SDS011;5479;52.046;6.314;2024-03-08T07:48:33;18.37;;;15.73;;
10851;SDS011;5479;52.046;6.314;2024-03-08T07:51:01;20.17;;;16.07;;
10851;SDS011;5479;52.046;6.314;2024-03-08T07:53:29;20.30;;;17.03;;
10851;SDS011;5479;52.046;6.314;2024-03-08T07:55:59;21.03;;;16.43;;
10851;SDS011;5479;52.046;6.314;2024-03-08T07:58:28;21.77;;;17.40;;
10851;SDS011;5479;52.046;6.314;2024-03-08T08:00:56;19.80;;;16.47;;
10851;SDS011;5479;52.046;6.314;2024-03-08T08:03:25;21.73;;;17.57;;
10851;SDS011;5479;52.046;6.314;2024-03-08T08:05:53;20.10;;;16.70;;
10851;SDS011;5479;52.046;6.314;2024-03-08T08:08:21;20.23;;;17.10;;
10851;SDS011;5479;52.046;6.314;2024-03-08T08:10:48;21.83;;;16.93;;
10851;SDS011;5479;52.046;6.314;2024-03-08T08:13:16;20.20;;;16.40;;
10851;SDS011;5479;52.046;6.314;2024-03-08T08:15:44;19.87;;;16.80;;
10851;SDS011;5479;52.046;6.314;2024-03-08T08:18:12;20.80;;;16.80;;
10851;SDS011;5479;52.046;6.314;2024-03-08T08:20:41;20.27;;;16.53;;
10851;SDS011;5479;52.046;6.314;2024-03-08T08:23:09;20.47;;;16.50;;
10851;SDS011;5479;52.046;6.314;2024-03-08T08:25:37;19.60;;;16.73;;
10851;SDS011;5479;52.046;6.314;2024-03-08T08:28:05;21.20;;;16.43;;
10851;SDS011;5479;52.046;6.314;2024-03-08T08:30:32;20.60;;;16.90;;
10851;SDS011;5479;52.046;6.314;2024-03-08T08:33:00;20.00;;;17.17;;
10851;SDS011;5479;52.046;6.314;2024-03-08T08:35:28;19.90;;;16.77;;
10851;SDS011;5479;52.046;6.314;2024-03-08T08:37:57;19.70;;;16.43;;
10851;SDS011;5479;52.046;6.314;2024-03-08T08:40:25;18.37;;;15.50;;
10851;SDS011;5479;52.046;6.314;2024-03-08T08:42:52;20.93;;;17.53;;
10851;SDS011;5479;52.046;6.314;2024-03-08T08:45:20;19.97;;;16.70;;
10851;SDS011;5479;52.046;6.314;2024-03-08T08:47:48;19.00;;;16.27;;
10851;SDS011;5479;52.046;6.314;2024-03-08T08:50:16;21.47;;;17.17;;
10851;SDS011;5479;52.046;6.314;2024-03-08T08:52:49;19.93;;;16.33;;
10851;SDS011;5479;52.046;6.314;2024-03-08T08:55:18;20.60;;;16.80;;
10851;SDS011;5479;52.046;6.314;2024-03-08T08:57:47;21.40;;;15.93;;
10851;SDS011;5479;52.046;6.314;2024-03-08T09:00:15;19.83;;;16.77;;
10851;SDS011;5479;52.046;6.314;2024-03-08T09:02:43;19.33;;;16.47;;
10851;SDS011;5479;52.046;6.314;2024-03-08T09:05:10;20.33;;;16.97;;
10851;SDS011;5479;52.046;6.314;2024-03-08T09:07:38;20.00;;;17.03;;
10851;SDS011;5479;52.046;6.314;2024-03-08T09:10:06;20.30;;;16.40;;
10851;SDS011;5479;52.046;6.314;2024-03-08T09:12:37;19.23;;;16.37;;
10851;SDS011;5479;52.046;6.314;2024-03-08T09:15:06;19.33;;;16.83;;
10851;SDS011;5479;52.046;6.314;2024-03-08T09:17:34;18.50;;;16.13;;
10851;SDS011;5479;52.046;6.314;2024-03-08T09:20:02;19.17;;;16.20;;
10851;SDS011;5479;52.046;6.314;2024-03-08T09:22:30;19.83;;;16.27;;
10851;SDS011;5479;52.046;6.314;2024-03-08T09:24:58;20.47;;;16.57;;
10851;SDS011;5479;52.046;6.314;2024-03-08T09:27:26;18.10;;;16.13;;
10851;SDS011;5479;52.046;6.314;2024-03-08T09:29:56;21.50;;;16.57;;
10851;SDS011;5479;52.046;6.314;2024-03-08T09:32:23;21.73;;;17.73;;
10851;SDS011;5479;52.046;6.314;2024-03-08T09:34:51;21.03;;;17.40;;
10851;SDS011;5479;52.046;6.314;2024-03-08T09:37:19;21.43;;;17.03;;
10851;SDS011;5479;52.046;6.314;2024-03-08T09:39:46;22.13;;;16.87;;
10851;SDS011;5479;52.046;6.314;2024-03-08T09:42:15;20.53;;;16.90;;
10851;SDS011;5479;52.046;6.314;2024-03-08T09:44:44;19.97;;;16.93;;
10851;SDS011;5479;52.046;6.314;2024-03-08T09:47:14;22.17;;;18.70;;
10851;SDS011;5479;52.046;6.314;2024-03-08T09:49:42;22.33;;;19.03;;
10851;SDS011;5479;52.046;6.314;2024-03-08T09:52:10;23.03;;;18.53;;
10851;SDS011;5479;52.046;6.314;2024-03-08T09:54:38;19.40;;;17.13;;
10851;SDS011;5479;52.046;6.314;2024-03-08T09:57:07;20.37;;;16.43;;
10851;SDS011;5479;52.046;6.314;2024-03-08T09:59:35;19.30;;;15.87;;
10851;SDS011;5479;52.046;6.314;2024-03-08T10:02:16;21.33;;;15.97;;
10851;SDS011;5479;52.046;6.314;2024-03-08T10:04:44;19.27;;;15.83;;
10851;SDS011;5479;52.046;6.314;2024-03-08T10:07:15;18.90;;;16.10;;
10851;SDS011;5479;52.046;6.314;2024-03-08T10:09:42;19.23;;;16.00;;
10851;SDS011;5479;52.046;6.314;2024-03-08T10:12:15;19.07;;;16.43;;
10851;SDS011;5479;52.046;6.314;2024-03-08T10:14:43;18.23;;;16.20;;
10851;SDS011;5479;52.046;6.314;2024-03-08T10:17:12;18.57;;;15.87;;
10851;SDS011;5479;52.046;6.314;2024-03-08T10:19:44;18.07;;;15.40;;
10851;SDS011;5479;52.046;6.314;2024-03-08T10:22:16;17.40;;;15.40;;
10851;SDS011;5479;52.046;6.314;2024-03-08T10:24:45;20.33;;;16.20;;
10851;SDS011;5479;52.046;6.314;2024-03-08T10:27:14;18.93;;;15.47;;
10851;SDS011;5479;52.046;6.314;2024-03-08T10:29:45;18.20;;;15.80;;
10851;SDS011;5479;52.046;6.314;2024-03-08T10:32:14;19.00;;;16.67;;
10851;SDS011;5479;52.046;6.314;2024-03-08T10:34:42;20.30;;;16.57;;
10851;SDS011;5479;52.046;6.314;2024-03-08T10:39:45;20.07;;;16.10;;
10851;SDS011;5479;52.046;6.314;2024-03-08T10:42:19;19.43;;;16.30;;
10851;SDS011;5479;52.046;6.314;2024-03-08T10:44:49;20.53;;;17.53;;
10851;SDS011;5479;52.046;6.314;2024-03-08T10:47:23;19.03;;;16.53;;
10851;SDS011;5479;52.046;6.314;2024-03-08T10:49:59;19.87;;;16.07;;
10851;SDS011;5479;52.046;6.314;2024-03-08T10:52:30;17.97;;;16.03;;
10851;SDS011;5479;52.046;6.314;2024-03-08T10:55:00;18.03;;;15.57;;
10851;SDS011;5479;52.046;6.314;2024-03-08T10:57:28;18.50;;;15.93;;
10851;SDS011;5479;52.046;6.314;2024-03-08T10:59:57;18.60;;;16.07;;
10851;SDS011;5479;52.046;6.314;2024-03-08T11:02:25;20.60;;;16.80;;
10851;SDS011;5479;52.046;6.314;2024-03-08T11:04:53;20.23;;;16.33;;
10851;SDS011;5479;52.046;6.314;2024-03-08T11:07:22;19.07;;;16.27;;
10851;SDS011;5479;52.046;6.314;2024-03-08T11:09:53;18.47;;;15.90;;
10851;SDS011;5479;52.046;6.314;2024-03-08T11:12:24;19.03;;;15.63;;
10851;SDS011;5479;52.046;6.314;2024-03-08T11:14:52;19.77;;;16.33;;
10851;SDS011;5479;52.046;6.314;2024-03-08T11:17:21;20.00;;;17.03;;
10851;SDS011;5479;52.046;6.314;2024-03-08T11:19:48;20.73;;;17.30;;
10851;SDS011;5479;52.046;6.314;2024-03-08T11:22:20;18.10;;;15.90;;
10851;SDS011;5479;52.046;6.314;2024-03-08T11:24:49;17.17;;;14.93;;
10851;SDS011;5479;52.046;6.314;2024-03-08T11:27:17;18.20;;;16.10;;
10851;SDS011;5479;52.046;6.314;2024-03-08T11:30:00;18.00;;;14.93;;
10851;SDS011;5479;52.046;6.314;2024-03-08T11:32:35;18.20;;;15.47;;
10851;SDS011;5479;52.046;6.314;2024-03-08T11:35:05;18.40;;;15.43;;
10851;SDS011;5479;52.046;6.314;2024-03-08T11:37:33;18.87;;;16.20;;
10851;SDS011;5479;52.046;6.314;2024-03-08T11:40:02;19.03;;;15.93;;
10851;SDS011;5479;52.046;6.314;2024-03-08T11:42:31;17.47;;;15.23;;
10851;SDS011;5479;52.046;6.314;2024-03-08T11:45:00;17.37;;;14.60;;
10851;SDS011;5479;52.046;6.314;2024-03-08T11:47:30;17.57;;;15.17;;
10851;SDS011;5479;52.046;6.314;2024-03-08T11:49:58;16.97;;;15.17;;
10851;SDS011;5479;52.046;6.314;2024-03-08T11:52:26;16.70;;;13.83;;
10851;SDS011;5479;52.046;6.314;2024-03-08T11:54:55;19.47;;;15.20;;
10851;SDS011;5479;52.046;6.314;2024-03-08T11:57:23;17.47;;;14.87;;
10851;SDS011;5479;52.046;6.314;2024-03-08T11:59:51;17.93;;;14.67;;
10851;SDS011;5479;52.046;6.314;2024-03-08T12:02:21;17.17;;;14.93;;
10851;SDS011;5479;52.046;6.314;2024-03-08T12:04:55;16.87;;;14.60;;
10851;SDS011;5479;52.046;6.314;2024-03-08T12:07:23;16.20;;;13.37;;
10851;SDS011;5479;52.046;6.314;2024-03-08T12:12:39;15.03;;;12.67;;
10851;SDS011;5479;52.046;6.314;2024-03-08T12:15:07;15.70;;;13.13;;
10851;SDS011;5479;52.046;6.314;2024-03-08T12:17:36;17.30;;;13.43;;
10851;SDS011;5479;52.046;6.314;2024-03-08T12:20:11;16.33;;;13.20;;
10851;SDS011;5479;52.046;6.314;2024-03-08T12:22:41;16.13;;;14.20;;
10851;SDS011;5479;52.046;6.314;2024-03-08T12:25:08;15.50;;;12.80;;
10851;SDS011;5479;52.046;6.314;2024-03-08T12:27:36;14.80;;;12.87;;
10851;SDS011;5479;52.046;6.314;2024-03-08T12:30:16;15.53;;;12.97;;
10851;SDS011;5479;52.046;6.314;2024-03-08T12:32:48;14.57;;;12.77;;
10851;SDS011;5479;52.046;6.314;2024-03-08T12:35:16;14.73;;;12.67;;
10851;SDS011;5479;52.046;6.314;2024-03-08T12:37:43;15.43;;;12.93;;
10851;SDS011;5479;52.046;6.314;2024-03-08T12:40:11;16.53;;;13.63;;
10851;SDS011;5479;52.046;6.314;2024-03-08T12:42:43;16.30;;;13.77;;
10851;SDS011;5479;52.046;6.314;2024-03-08T12:45:10;15.50;;;12.97;;
10851;SDS011;5479;52.046;6.314;2024-03-08T12:47:38;16.63;;;13.93;;
10851;SDS011;5479;52.046;6.314;2024-03-08T12:50:10;15.90;;;13.17;;
10851;SDS011;5479;52.046;6.314;2024-03-08T12:52:38;15.97;;;13.23;;
10851;SDS011;5479;52.046;6.314;2024-03-08T12:55:06;15.80;;;13.63;;
10851;SDS011;5479;52.046;6.314;2024-03-08T12:57:34;15.53;;;12.63;;
10851;SDS011;5479;52.046;6.314;2024-03-08T13:00:02;15.93;;;13.60;;
10851;SDS011;5479;52.046;6.314;2024-03-08T13:02:30;16.07;;;13.23;;
10851;SDS011;5479;52.046;6.314;2024-03-08T13:04:58;14.70;;;12.93;;
10851;SDS011;5479;52.046;6.314;2024-03-08T13:07:27;16.40;;;12.90;;
10851;SDS011;5479;52.046;6.314;2024-03-08T13:09:55;15.60;;;12.80;;
10851;SDS011;5479;52.046;6.314;2024-03-08T13:12:23;16.00;;;12.27;;
10851;SDS011;5479;52.046;6.314;2024-03-08T13:14:51;15.67;;;13.17;;
10851;SDS011;5479;52.046;6.314;2024-03-08T13:17:19;15.27;;;11.97;;
10851;SDS011;5479;52.046;6.314;2024-03-08T13:19:46;16.20;;;12.83;;
10851;SDS011;5479;52.046;6.314;2024-03-08T13:22:14;16.40;;;12.60;;
10851;SDS011;5479;52.046;6.314;2024-03-08T13:24:45;14.83;;;12.27;;
10851;SDS011;5479;52.046;6.314;2024-03-08T13:27:14;14.93;;;12.57;;
10851;SDS011;5479;52.046;6.314;2024-03-08T13:29:48;15.30;;;13.03;;
10851;SDS011;5479;52.046;6.314;2024-03-08T13:32:16;16.43;;;13.57;;
10851;SDS011;5479;52.046;6.314;2024-03-08T13:34:46;14.60;;;12.67;;
10851;SDS011;5479;52.046;6.314;2024-03-08T13:37:17;15.53;;;12.60;;
10851;SDS011;5479;52.046;6.314;2024-03-08T13:39:46;15.33;;;12.97;;
10851;SDS011;5479;52.046;6.314;2024-03-08T13:42:14;15.37;;;12.63;;
10851;SDS011;5479;52.046;6.314;2024-03-08T13:44:45;15.63;;;12.30;;
10851;SDS011;5479;52.046;6.314;2024-03-08T13:47:13;14.53;;;11.90;;
10851;SDS011;5479;52.046;6.314;2024-03-08T13:49:41;14.97;;;12.17;;
10851;SDS011;5479;52.046;6.314;2024-03-08T13:52:11;17.27;;;13.27;;
10851;SDS011;5479;52.046;6.314;2024-03-08T13:54:41;18.23;;;12.83;;
10851;SDS011;5479;52.046;6.314;2024-03-08T13:57:10;17.10;;;13.17;;
10851;SDS011;5479;52.046;6.314;2024-03-08T13:59:38;15.60;;;13.10;;
10851;SDS011;5479;52.046;6.314;2024-03-08T14:02:06;14.23;;;12.73;;
10851;SDS011;5479;52.046;6.314;2024-03-08T14:04:39;16.07;;;12.93;;
10851;SDS011;5479;52.046;6.314;2024-03-08T14:07:08;14.43;;;12.77;;
10851;SDS011;5479;52.046;6.314;2024-03-08T14:09:37;13.93;;;12.43;;
10851;SDS011;5479;52.046;6.314;2024-03-08T14:12:11;14.87;;;12.70;;
10851;SDS011;5479;52.046;6.314;2024-03-08T14:14:40;15.20;;;12.53;;
10851;SDS011;5479;52.046;6.314;2024-03-08T14:17:08;15.63;;;12.40;;
10851;SDS011;5479;52.046;6.314;2024-03-08T14:19:36;17.17;;;12.60;;
10851;SDS011;5479;52.046;6.314;2024-03-08T14:22:05;14.57;;;12.80;;
10851;SDS011;5479;52.046;6.314;2024-03-08T14:24:33;15.27;;;12.57;;
10851;SDS011;5479;52.046;6.314;2024-03-08T14:27:02;14.63;;;12.73;;
10851;SDS011;5479;52.046;6.314;2024-03-08T14:29:31;13.47;;;11.63;;
10851;SDS011;5479;52.046;6.314;2024-03-08T14:31:59;14.87;;;11.50;;
10851;SDS011;5479;52.046;6.314;2024-03-08T14:34:27;15.00;;;11.47;;
10851;SDS011;5479;52.046;6.314;2024-03-08T14:36:55;14.13;;;11.93;;
10851;SDS011;5479;52.046;6.314;2024-03-08T14:39:24;14.90;;;12.20;;
10851;SDS011;5479;52.046;6.314;2024-03-08T14:41:57;14.40;;;11.07;;
10851;SDS011;5479;52.046;6.314;2024-03-08T14:44:25;13.70;;;11.47;;
10851;SDS011;5479;52.046;6.314;2024-03-08T14:46:54;14.13;;;12.20;;